Time;durP1;ratioP1;P1;durP2;ratioP2;P2;SDS_P1;SDS_P2;PMS_P1;PMS_P2;Temp;Humidity;BMP_temperature;BMP_pressure;BME280_temperature;BME280_humidity;BME280_pressure;Samples;Min_cycle;Max_cycle;Signal;HPM_P1;HPM_P2
2023/03/26 00:00:34;;;;;;;13.23;3.00;;;;;;;5.75;100.00;98605.66;5101651;28;20031;-59
2023/03/26 00:03:00;;;;;;;12.82;3.08;;;;;;;5.77;100.00;98614.22;5102295;28;20024;-59
2023/03/26 00:05:25;;;;;;;12.32;3.05;;;;;;;5.79;100.00;98606.84;5104269;28;20019;-59
2023/03/26 00:07:51;;;;;;;16.55;3.15;;;;;;;5.82;100.00;98611.69;5096420;28;20488;-59
2023/03/26 00:10:16;;;;;;;15.15;3.55;;;;;;;5.82;100.00;98622.34;5099211;28;20083;-59
2023/03/26 00:12:41;;;;;;;9.98;3.22;;;;;;;5.85;100.00;98613.09;5100678;28;20028;-59
2023/03/26 00:15:09;;;;;;;10.85;2.58;;;;;;;5.88;100.00;98619.81;5101849;28;20034;-59
2023/03/26 00:17:35;;;;;;;13.32;3.65;;;;;;;5.86;100.00;98617.34;5095106;28;20097;-58
2023/03/26 00:20:00;;;;;;;10.65;2.80;;;;;;;5.83;100.00;98618.63;5098159;28;20036;-59
2023/03/26 00:22:26;;;;;;;12.48;3.10;;;;;;;5.72;100.00;98622.06;5101384;28;20028;-59
2023/03/26 00:24:51;;;;;;;12.65;2.80;;;;;;;5.73;100.00;98617.56;5097107;28;20032;-59
2023/03/26 00:27:16;;;;;;;9.20;2.92;;;;;;;5.74;100.00;98612.03;5099353;28;20477;-59
2023/03/26 00:29:42;;;;;;;17.85;3.53;;;;;;;5.91;100.00;98617.50;5101580;28;20524;-59
2023/03/26 00:32:07;;;;;;;13.43;3.10;;;;;;;5.90;100.00;98617.72;5102974;28;20055;-59
2023/03/26 00:34:33;;;;;;;23.40;3.72;;;;;;;5.94;100.00;98614.44;5101236;28;20019;-59
2023/03/26 00:37:01;;;;;;;17.05;3.42;;;;;;;5.92;100.00;98621.78;5101702;28;20047;-59
2023/03/26 00:39:28;;;;;;;22.27;4.05;;;;;;;5.95;100.00;98616.03;5098917;28;20059;-59
2023/03/26 00:41:54;;;;;;;10.85;3.08;;;;;;;5.88;100.00;98617.16;5103340;28;20078;-59
2023/03/26 00:44:19;;;;;;;13.52;4.03;;;;;;;5.80;100.00;98610.31;5093975;28;20036;-59
2023/03/26 00:46:45;;;;;;;13.80;3.25;;;;;;;5.83;100.00;98612.50;5100286;28;20334;-59
2023/03/26 00:49:13;;;;;;;19.23;3.00;;;;;;;5.84;100.00;98617.59;5102216;28;20398;-59
2023/03/26 00:51:39;;;;;;;14.73;3.08;;;;;;;5.77;100.00;98614.22;5099656;28;20176;-59
2023/03/26 00:54:06;;;;;;;14.77;3.55;;;;;;;5.72;100.00;98606.13;5099231;28;20040;-59
2023/03/26 00:56:32;;;;;;;13.27;3.40;;;;;;;5.80;100.00;98604.97;5101870;28;20388;-59
2023/03/26 00:58:59;;;;;;;17.95;4.20;;;;;;;5.72;100.00;98605.31;5091007;28;20028;-59
2023/03/26 01:01:29;;;;;;;10.57;3.47;;;;;;;5.63;100.00;98599.47;5098773;28;20179;-59
2023/03/26 01:03:57;;;;;;;13.07;3.45;;;;;;;5.54;100.00;98598.16;5096249;28;20043;-59
2023/03/26 01:06:34;;;;;;;15.05;3.17;;;;;;;5.53;100.00;98596.56;5098287;28;20031;-59
2023/03/26 01:09:18;;;;;;;16.40;3.65;;;;;;;5.44;100.00;98592.56;5098027;28;20458;-59
2023/03/26 01:11:44;;;;;;;16.50;3.70;;;;;;;5.44;100.00;98588.06;5100497;28;20481;-59
2023/03/26 01:14:15;;;;;;;11.52;3.35;;;;;;;5.47;100.00;98586.84;5099497;28;20055;-59
2023/03/26 01:17:07;;;;;;;18.17;3.55;;;;;;;5.39;100.00;98575.47;5098925;28;20023;-59
2023/03/26 01:19:52;;;;;;;10.30;2.42;;;;;;;5.29;100.00;98569.88;5098388;28;20055;-59
2023/03/26 01:22:22;;;;;;;12.23;3.28;;;;;;;5.29;100.00;98563.75;5102233;28;20035;-59
2023/03/26 01:24:51;;;;;;;13.57;3.88;;;;;;;5.26;100.00;98559.69;5098967;28;20107;-59
2023/03/26 01:27:37;;;;;;;21.15;3.00;;;;;;;5.19;100.00;98548.31;5090657;28;20039;-59
2023/03/26 01:30:11;;;;;;;17.13;3.42;;;;;;;5.21;100.00;98551.56;5117044;27;20032;-59
2023/03/26 01:33:02;;;;;;;15.98;3.83;;;;;;;5.20;100.00;98549.97;5101969;28;20059;-59
2023/03/26 01:36:04;;;;;;;12.27;3.50;;;;;;;5.37;100.00;98550.97;5097618;28;20028;-59
2023/03/26 01:38:48;;;;;;;16.13;3.60;;;;;;;5.44;100.00;98547.41;5066943;28;20554;-59
2023/03/26 01:41:37;;;;;;;14.32;3.10;;;;;;;5.53;100.00;98551.38;5099736;28;20028;-59
2023/03/26 01:44:14;;;;;;;22.20;3.33;;;;;;;5.60;100.00;98544.13;5101681;28;20012;-59
2023/03/26 01:46:43;;;;;;;20.77;4.00;;;;;;;5.64;100.00;98545.25;5096524;28;20059;-59
2023/03/26 01:49:11;;;;;;;18.13;3.80;;;;;;;5.69;100.00;98548.06;5089210;28;20107;-59
2023/03/26 01:51:37;;;;;;;14.88;3.47;;;;;;;5.66;100.00;98543.19;5099992;28;20380;-59
2023/03/26 01:54:06;;;;;;;20.38;3.83;;;;;;;5.60;100.00;98533.47;5094559;28;20028;-59
2023/03/26 01:56:41;;;;;;;15.20;3.67;;;;;;;5.60;100.00;98534.28;5093295;28;20089;-59
2023/03/26 01:59:10;;;;;;;16.50;4.05;;;;;;;5.66;100.00;98531.75;5092740;28;20031;-59
2023/03/26 02:01:43;;;;;;;18.67;3.90;;;;;;;5.65;100.00;98532.81;5094754;28;20694;-58
2023/03/26 02:04:23;;;;;;;22.52;4.10;;;;;;;5.66;100.00;98527.25;5095660;28;20035;-59
2023/03/26 02:06:57;;;;;;;17.05;3.80;;;;;;;5.70;100.00;98515.13;5098912;28;20023;-59
2023/03/26 02:09:24;;;;;;;17.85;3.65;;;;;;;5.79;100.00;98511.09;5071924;28;20471;-59
2023/03/26 02:11:50;;;;;;;23.77;3.95;;;;;;;5.80;100.00;98502.06;5099520;28;20028;-59
2023/03/26 02:14:15;;;;;;;18.75;3.97;;;;;;;5.87;100.00;98506.50;5096678;28;20042;-59
2023/03/26 02:16:45;;;;;;;20.55;3.53;;;;;;;5.82;100.00;98500.00;5077167;28;20020;-60
2023/03/26 02:19:14;;;;;;;16.77;3.42;;;;;;;5.82;100.00;98493.88;5093208;28;20422;-59
2023/03/26 02:21:40;;;;;;;19.27;3.85;;;;;;;5.77;100.00;98488.44;5101129;28;20045;-59
2023/03/26 02:24:05;;;;;;;16.73;3.92;;;;;;;5.74;100.00;98487.06;5098313;28;20050;-59
2023/03/26 02:26:32;;;;;;;11.13;3.45;;;;;;;5.76;100.00;98484.13;5099434;28;20435;-59
2023/03/26 02:28:58;;;;;;;14.07;3.60;;;;;;;5.72;100.00;98483.81;5094658;28;20032;-59
2023/03/26 02:31:29;;;;;;;12.65;3.20;;;;;;;5.72;100.00;98481.16;5094997;28;20038;-59
2023/03/26 02:33:54;;;;;;;20.45;3.65;;;;;;;5.70;100.00;98469.91;5097328;28;20026;-59
2023/03/26 02:36:23;;;;;;;14.88;3.80;;;;;;;5.71;100.00;98471.53;5094648;28;20043;-59
2023/03/26 02:38:48;;;;;;;9.93;3.08;;;;;;;5.72;100.00;98457.22;5094113;28;20036;-59
2023/03/26 02:41:14;;;;;;;15.73;3.17;;;;;;;5.67;100.00;98457.09;5096706;28;20470;-59
2023/03/26 02:43:39;;;;;;;23.30;4.13;;;;;;;5.69;100.00;98464.81;5096570;28;20215;-59
2023/03/26 02:46:05;;;;;;;21.63;4.80;;;;;;;5.67;100.00;98465.06;5096558;28;20414;-59
2023/03/26 02:48:30;;;;;;;19.80;3.88;;;;;;;5.76;100.00;98465.53;5098975;28;20031;-59
2023/03/26 02:50:56;;;;;;;21.17;3.20;;;;;;;5.66;100.00;98444.81;5081789;28;20270;-59
2023/03/26 02:53:22;;;;;;;21.75;4.43;;;;;;;5.64;100.00;98444.22;5078326;28;20479;-59
2023/03/26 02:55:48;;;;;;;13.65;3.90;;;;;;;5.68;100.00;98442.75;5101493;28;20067;-59
2023/03/26 02:58:16;;;;;;;17.60;3.72;;;;;;;5.70;100.00;98442.53;5090895;28;20032;-59
2023/03/26 03:00:45;;;;;;;24.63;3.92;;;;;;;5.66;100.00;98436.03;5096136;28;20477;-59
2023/03/26 03:03:12;;;;;;;15.02;3.95;;;;;;;5.67;100.00;98430.50;5095341;28;20076;-59
2023/03/26 03:05:37;;;;;;;16.98;3.53;;;;;;;5.73;100.00;98428.78;5094158;28;20144;-59
2023/03/26 03:08:04;;;;;;;18.73;3.53;;;;;;;5.73;100.00;98426.91;5091377;28;20545;-59
2023/03/26 03:10:31;;;;;;;21.55;4.13;;;;;;;5.72;100.00;98425.31;5092965;28;20401;-59
2023/03/26 03:12:57;;;;;;;20.70;4.45;;;;;;;5.72;100.00;98420.00;5098817;28;20180;-59
2023/03/26 03:15:22;;;;;;;17.00;3.35;;;;;;;5.73;100.00;98424.25;5097153;28;20024;-59
2023/03/26 03:17:47;;;;;;;20.75;3.78;;;;;;;5.77;100.00;98409.47;5090848;28;20012;-59
2023/03/26 03:20:13;;;;;;;17.75;3.90;;;;;;;5.79;100.00;98415.38;5092708;28;20028;-59
2023/03/26 03:22:38;;;;;;;16.80;3.55;;;;;;;5.78;100.00;98407.63;5101707;28;20024;-59
2023/03/26 03:25:07;;;;;;;20.35;3.92;;;;;;;5.77;100.00;98398.84;5092091;28;20063;-59
2023/03/26 03:27:33;;;;;;;15.75;3.53;;;;;;;5.81;100.00;98394.66;5098363;28;20471;-59
2023/03/26 03:29:58;;;;;;;18.88;4.20;;;;;;;5.79;100.00;98394.09;5095192;28;20036;-59
2023/03/26 03:32:24;;;;;;;23.85;3.88;;;;;;;5.82;100.00;98393.63;5102121;28;20376;-59
2023/03/26 03:34:49;;;;;;;22.05;3.63;;;;;;;5.76;100.00;98383.09;5100957;28;20435;-59
2023/03/26 03:37:16;;;;;;;27.80;4.75;;;;;;;5.80;100.00;98384.25;5094232;28;20351;-59
2023/03/26 03:39:41;;;;;;;15.68;3.53;;;;;;;5.79;100.00;98375.47;5093549;28;20110;-60
2023/03/26 03:42:07;;;;;;;12.68;3.42;;;;;;;5.84;100.00;98374.75;5094656;28;20040;-59
2023/03/26 03:44:32;;;;;;;20.25;3.47;;;;;;;5.86;100.00;98372.69;5090773;28;20035;-59
2023/03/26 03:46:57;;;;;;;21.73;3.75;;;;;;;5.87;100.00;98378.84;5089773;28;20050;-59
2023/03/26 03:49:23;;;;;;;22.80;3.72;;;;;;;5.88;100.00;98369.81;5094622;28;20481;-59
2023/03/26 03:51:48;;;;;;;28.23;4.03;;;;;;;5.88;100.00;98365.28;5091787;28;20082;-59
2023/03/26 03:54:14;;;;;;;12.07;3.03;;;;;;;5.94;100.00;98358.25;5093979;28;20020;-59
2023/03/26 03:56:39;;;;;;;20.58;3.47;;;;;;;5.83;100.00;98357.19;5090178;28;20039;-59
2023/03/26 03:59:05;;;;;;;20.77;3.85;;;;;;;5.80;100.00;98342.53;5096524;28;20099;-59
2023/03/26 04:01:30;;;;;;;19.23;3.30;;;;;;;5.80;100.00;98342.53;5098748;28;20323;-59
2023/03/26 04:03:56;;;;;;;26.38;3.58;;;;;;;5.77;100.00;98336.88;5093278;28;20027;-59
2023/03/26 04:06:24;;;;;;;16.02;3.47;;;;;;;5.70;100.00;98330.88;5090859;28;20023;-59
2023/03/26 04:08:49;;;;;;;21.90;3.70;;;;;;;5.71;100.00;98338.59;5100664;28;20525;-59
2023/03/26 04:11:15;;;;;;;22.92;4.00;;;;;;;5.73;100.00;98338.38;5101419;28;20026;-59
2023/03/26 04:13:40;;;;;;;21.00;3.63;;;;;;;5.74;100.00;98340.81;5092515;28;20043;-60
2023/03/26 04:16:06;;;;;;;25.35;4.00;;;;;;;5.78;100.00;98339.28;5096152;28;20040;-59
2023/03/26 04:18:32;;;;;;;15.35;3.80;;;;;;;5.77;100.00;98320.91;5095124;28;20515;-60
2023/03/26 04:21:01;;;;;;;11.90;3.13;;;;;;;5.66;100.00;98319.88;5099079;28;20024;-59
2023/03/26 04:23:27;;;;;;;23.02;3.72;;;;;;;5.70;100.00;98310.41;5093282;28;20024;-59
2023/03/26 04:25:53;;;;;;;15.48;3.15;;;;;;;5.64;100.00;98300.69;5098026;28;20044;-59
2023/03/26 04:28:27;;;;;;;21.80;3.60;;;;;;;5.69;100.00;98286.69;5096605;28;20024;-59
2023/03/26 04:30:54;;;;;;;22.77;3.95;;;;;;;5.70;100.00;98283.00;5097923;28;20047;-59
2023/03/26 04:33:19;;;;;;;17.05;3.80;;;;;;;5.69;100.00;98262.75;5097842;28;20032;-59
2023/03/26 04:35:47;;;;;;;17.50;3.85;;;;;;;5.72;100.00;98260.47;5090611;28;20027;-59
2023/03/26 04:38:15;;;;;;;24.23;3.80;;;;;;;5.72;100.00;98257.00;5093587;28;20035;-59
2023/03/26 04:40:42;;;;;;;18.45;3.03;;;;;;;5.72;100.00;98241.84;5081849;28;20016;-60
2023/03/26 04:43:17;;;;;;;17.92;3.40;;;;;;;5.73;100.00;98235.47;5093718;28;20086;-59
2023/03/26 04:45:44;;;;;;;19.45;3.38;;;;;;;5.74;100.00;98226.47;5094997;28;20024;-61
2023/03/26 04:48:13;;;;;;;19.20;4.30;;;;;;;5.72;100.00;98223.25;5096023;28;20036;-61
2023/03/26 04:50:42;;;;;;;14.30;3.10;;;;;;;5.80;100.00;98222.84;5096932;28;20135;-61
2023/03/26 04:53:15;;;;;;;20.35;3.55;;;;;;;5.84;100.00;98218.69;5102584;28;20081;-58
2023/03/26 04:55:50;;;;;;;19.92;3.25;;;;;;;5.78;100.00;98219.63;5102957;28;20088;-58
2023/03/26 04:58:15;;;;;;;18.50;3.22;;;;;;;5.78;100.00;98206.31;5095248;28;20115;-58
2023/03/26 05:00:41;;;;;;;18.92;3.60;;;;;;;5.70;100.00;98211.22;5101988;28;20117;-58
2023/03/26 05:03:10;;;;;;;23.98;3.75;;;;;;;5.70;100.00;98214.69;5095862;28;20379;-60
2023/03/26 05:05:36;;;;;;;15.85;3.30;;;;;;;5.67;100.00;98215.16;5097895;28;20030;-60
2023/03/26 05:08:01;;;;;;;22.73;4.70;;;;;;;5.70;100.00;98209.38;5101285;28;20028;-60
2023/03/26 05:10:26;;;;;;;23.90;3.92;;;;;;;5.71;100.00;98208.31;5098529;27;20024;-60
2023/03/26 05:12:52;;;;;;;13.50;3.13;;;;;;;5.73;100.00;98197.44;5102639;28;20058;-60
2023/03/26 05:15:17;;;;;;;20.90;3.22;;;;;;;5.75;100.00;98201.50;5098648;28;20035;-59
2023/03/26 05:17:43;;;;;;;21.63;3.50;;;;;;;5.69;100.00;98193.63;5095217;28;20051;-59
2023/03/26 05:20:29;;;;;;;28.85;3.83;;;;;;;5.69;100.00;98175.84;5094324;28;20497;-60
2023/03/26 05:22:54;;;;;;;17.08;3.88;;;;;;;5.60;100.00;98175.41;5098733;28;20390;-60
2023/03/26 05:25:20;;;;;;;16.98;3.85;;;;;;;5.64;100.00;98167.75;5097745;28;20043;-60
2023/03/26 05:27:45;;;;;;;17.67;3.72;;;;;;;5.68;100.00;98176.88;5093138;28;20354;-60
2023/03/26 05:30:15;;;;;;;26.73;4.38;;;;;;;5.66;100.00;98165.69;5095860;28;20073;-60
2023/03/26 05:32:41;;;;;;;23.77;3.60;;;;;;;5.72;100.00;98158.63;5102995;28;20034;-60
2023/03/26 05:35:07;;;;;;;21.88;4.25;;;;;;;5.77;100.00;98151.53;5099595;28;20110;-61
2023/03/26 05:37:32;;;;;;;29.50;4.97;;;;;;;5.72;100.00;98151.44;5098277;28;20424;-60
2023/03/26 05:39:58;;;;;;;22.48;5.30;;;;;;;5.80;100.00;98151.06;5100532;28;20031;-60
2023/03/26 05:42:24;;;;;;;27.23;5.00;;;;;;;5.91;100.00;98151.25;5094654;28;20298;-60
2023/03/26 05:44:49;;;;;;;27.50;5.93;;;;;;;5.90;100.00;98147.00;5098157;28;20059;-60
2023/03/26 05:47:15;;;;;;;41.55;5.80;;;;;;;5.93;100.00;98141.19;5094889;28;20032;-60
2023/03/26 05:49:40;;;;;;;26.48;5.95;;;;;;;6.10;100.00;98143.91;5091859;28;20015;-60
2023/03/26 05:52:06;;;;;;;31.27;5.85;;;;;;;6.05;100.00;98141.97;5099688;28;20042;-61
2023/03/26 05:54:31;;;;;;;16.38;4.03;;;;;;;5.98;100.00;98128.00;5100090;28;20035;-60
2023/03/26 05:56:57;;;;;;;21.85;4.35;;;;;;;6.09;100.00;98137.78;5096335;28;20304;-60
2023/03/26 05:59:22;;;;;;;24.08;4.20;;;;;;;6.04;100.00;98127.03;5096512;28;20092;-58
2023/03/26 06:01:49;;;;;;;18.63;3.80;;;;;;;6.04;100.00;98124.38;5098763;28;20032;-58
2023/03/26 06:04:18;;;;;;;14.13;3.17;;;;;;;6.07;100.00;98137.22;5099108;28;20103;-61
2023/03/26 06:06:43;;;;;;;19.88;3.80;;;;;;;5.94;100.00;98132.19;5094133;28;20024;-58
2023/03/26 06:09:10;;;;;;;17.85;3.05;;;;;;;6.07;100.00;98134.56;5095901;28;20486;-58
2023/03/26 06:11:36;;;;;;;17.00;3.42;;;;;;;6.10;100.00;98134.06;5100932;28;20035;-61
2023/03/26 06:14:01;;;;;;;23.02;3.47;;;;;;;6.15;100.00;98125.38;5096235;28;20474;-61
2023/03/26 06:16:27;;;;;;;30.15;3.92;;;;;;;6.08;100.00;98122.84;5097627;28;20036;-61
2023/03/26 06:18:53;;;;;;;24.70;3.65;;;;;;;5.80;100.00;98119.16;5095372;28;20028;-61
2023/03/26 06:21:18;;;;;;;22.70;4.15;;;;;;;5.73;100.00;98117.69;5092121;28;20046;-61
2023/03/26 06:23:43;;;;;;;16.02;3.85;;;;;;;5.89;100.00;98116.94;5097880;28;20036;-60
2023/03/26 06:26:09;;;;;;;24.50;4.25;;;;;;;5.90;100.00;98112.41;5098259;28;20040;-60
2023/03/26 06:28:35;;;;;;;17.42;4.20;;;;;;;6.29;100.00;98105.41;5098064;28;20080;-60
2023/03/26 06:31:01;;;;;;;25.40;4.55;;;;;;;6.61;100.00;98102.94;5096305;28;20028;-61
2023/03/26 06:33:26;;;;;;;19.88;3.95;;;;;;;6.55;100.00;98093.28;5086217;28;20022;-60
2023/03/26 06:35:52;;;;;;;14.90;3.92;;;;;;;6.76;100.00;98088.22;5092025;28;20086;-60
2023/03/26 06:38:17;;;;;;;22.13;4.60;;;;;;;6.53;100.00;98084.72;5092363;28;20039;-61
2023/03/26 06:40:43;;;;;;;22.17;5.05;;;;;;;6.45;100.00;98085.13;5097752;28;20023;-58
2023/03/26 06:43:08;;;;;;;19.77;3.95;;;;;;;6.44;100.00;98083.50;5098524;28;20230;-58
2023/03/26 06:45:34;;;;;;;17.67;3.53;;;;;;;6.58;100.00;98076.81;5095230;28;20031;-61
2023/03/26 06:47:59;;;;;;;34.10;5.05;;;;;;;6.49;100.00;98080.94;5097411;28;20666;-60
2023/03/26 06:50:25;;;;;;;19.42;4.20;;;;;;;6.33;100.00;98079.09;5098331;28;20027;-61
2023/03/26 06:52:54;;;;;;;21.98;3.60;;;;;;;6.30;100.00;98079.59;5094264;28;20422;-60
2023/03/26 06:55:20;;;;;;;19.23;4.60;;;;;;;6.33;100.00;98073.78;5097244;28;20063;-60
2023/03/26 06:57:52;;;;;;;28.17;3.60;;;;;;;6.34;100.00;98067.38;5097381;28;20373;-61
2023/03/26 07:00:17;;;;;;;24.77;4.53;;;;;;;6.19;100.00;98060.81;5097844;28;20032;-58
2023/03/26 07:02:43;;;;;;;19.38;3.78;;;;;;;5.95;100.00;98062.81;5096333;28;20038;-58
2023/03/26 07:05:08;;;;;;;25.38;4.15;;;;;;;5.97;100.00;98059.91;5098135;28;20422;-59
2023/03/26 07:07:34;;;;;;;31.60;4.20;;;;;;;6.14;100.00;98052.75;5093148;28;20038;-58
2023/03/26 07:09:59;;;;;;;22.75;4.20;;;;;;;6.24;100.00;98055.56;5091466;28;20024;-60
2023/03/26 07:12:25;;;;;;;23.05;4.18;;;;;;;6.30;100.00;98048.44;5102027;28;20040;-58
2023/03/26 07:14:50;;;;;;;22.77;4.13;;;;;;;6.16;100.00;98041.84;5096131;28;20051;-59
2023/03/26 07:17:16;;;;;;;19.52;3.78;;;;;;;6.20;100.00;98038.47;5093465;28;20634;-59
2023/03/26 07:19:41;;;;;;;17.00;3.75;;;;;;;6.09;100.00;98036.69;5097787;28;20401;-59
2023/03/26 07:22:08;;;;;;;20.35;4.45;;;;;;;5.98;100.00;98032.25;5098572;28;20040;-59
2023/03/26 07:24:33;;;;;;;20.55;3.90;;;;;;;6.10;100.00;98030.31;5103595;28;20031;-59
2023/03/26 07:27:11;;;;;;;23.15;4.03;;;;;;;6.00;100.00;98030.16;5098754;28;20215;-59
2023/03/26 07:29:44;;;;;;;19.27;3.55;;;;;;;5.95;100.00;98025.56;5088338;28;20032;-59
2023/03/26 07:32:15;;;;;;;20.25;4.30;;;;;;;6.20;100.00;98019.84;5094973;28;20063;-59
2023/03/26 07:34:56;;;;;;;14.40;4.50;;;;;;;6.37;100.00;98021.69;5098744;28;20019;-59
2023/03/26 07:37:42;;;;;;;21.42;4.03;;;;;;;6.10;100.00;98018.88;5093068;28;20099;-59
2023/03/26 07:40:26;;;;;;;16.77;3.50;;;;;;;6.03;100.00;98016.38;5089328;28;20035;-59
2023/03/26 07:43:18;;;;;;;20.90;3.95;;;;;;;6.05;100.00;98003.66;5097751;28;20497;-59
2023/03/26 07:45:44;;;;;;;15.45;3.45;;;;;;;6.03;100.00;97995.91;5073637;28;20311;-60
2023/03/26 07:48:17;;;;;;;18.98;4.07;;;;;;;6.08;100.00;97999.69;5097771;28;20016;-59
2023/03/26 07:50:43;;;;;;;13.65;3.80;;;;;;;5.98;100.00;97995.03;5090146;28;20016;-59
2023/03/26 07:53:09;;;;;;;13.25;3.70;;;;;;;5.81;100.00;97995.78;5095153;28;20131;-59
2023/03/26 07:55:38;;;;;;;12.15;3.70;;;;;;;5.95;100.00;97990.19;5096067;28;20107;-59
2023/03/26 07:58:21;;;;;;;18.58;4.88;;;;;;;6.01;100.00;97982.03;5092491;28;20280;-59
2023/03/26 08:01:15;;;;;;;12.82;4.25;;;;;;;6.06;100.00;97973.31;5097251;28;20031;-59
2023/03/26 08:04:11;;;;;;;20.45;3.83;;;;;;;6.05;100.00;97966.41;5094832;28;20028;-59
2023/03/26 08:06:37;;;;;;;12.35;3.95;;;;;;;5.96;100.00;97963.34;5086651;28;20370;-59
2023/03/26 08:09:14;;;;;;;14.63;3.38;;;;;;;6.12;100.00;97956.41;5098720;28;20032;-59
2023/03/26 08:11:48;;;;;;;16.23;3.92;;;;;;;6.01;100.00;97950.09;5089665;28;20031;-59
2023/03/26 08:14:23;;;;;;;14.85;4.47;;;;;;;5.88;100.00;97949.63;5097332;28;20314;-59
2023/03/26 08:17:19;;;;;;;20.92;4.50;;;;;;;5.89;100.00;97949.41;5075985;28;20044;-59
2023/03/26 08:20:06;;;;;;;15.73;4.05;;;;;;;5.90;100.00;97947.53;5098446;28;20497;-59
2023/03/26 08:22:40;;;;;;;11.98;3.28;;;;;;;5.88;100.00;97950.44;5096649;28;20474;-59
2023/03/26 08:25:17;;;;;;;14.13;4.53;;;;;;;5.84;100.00;97941.31;5096546;28;20081;-59
2023/03/26 08:28:09;;;;;;;14.07;3.13;;;;;;;5.75;100.00;97951.56;5097654;28;20434;-61
2023/03/26 08:30:35;;;;;;;11.77;3.17;;;;;;;5.78;100.00;97945.75;5091652;28;20546;-59
2023/03/26 08:33:10;;;;;;;15.25;3.80;;;;;;;5.75;100.00;97946.25;5097303;28;20028;-59
2023/03/26 08:35:41;;;;;;;10.75;3.28;;;;;;;5.70;100.00;97948.81;5100852;28;20035;-59
2023/03/26 08:38:07;;;;;;;12.77;3.05;;;;;;;5.69;100.00;97946.41;5097783;28;20478;-59
2023/03/26 08:40:58;;;;;;;10.25;3.08;;;;;;;5.57;100.00;97946.50;5098034;28;20023;-59
2023/03/26 08:43:32;;;;;;;8.95;2.70;;;;;;;5.65;100.00;97930.13;5100417;28;20035;-59
2023/03/26 08:46:27;;;;;;;7.30;2.25;;;;;;;5.70;100.00;97932.88;5090283;28;20462;-61
2023/03/26 08:49:15;;;;;;;9.02;2.05;;;;;;;5.75;100.00;97934.81;5081077;28;20665;-59
2023/03/26 08:52:14;;;;;;;10.25;3.00;;;;;;;5.79;100.00;97920.78;5096809;28;20051;-59
2023/03/26 08:54:45;;;;;;;10.48;2.90;;;;;;;5.87;100.00;97922.22;5101749;28;20308;-58
2023/03/26 08:57:19;;;;;;;9.68;3.30;;;;;;;6.09;100.00;97919.66;5092439;28;20481;-58
2023/03/26 08:59:58;;;;;;;16.23;6.10;;;;;;;6.44;100.00;97910.50;5091470;28;20499;-59
2023/03/26 09:02:27;;;;;;;10.20;3.13;;;;;;;6.46;100.00;97903.06;5095023;28;20080;-59
2023/03/26 09:05:01;;;;;;;4.80;1.98;;;;;;;6.37;100.00;97899.25;5105583;28;20055;-59
2023/03/26 09:08:04;;;;;;;5.20;2.38;;;;;;;6.32;100.00;97891.22;5089209;28;20070;-59
2023/03/26 09:10:48;;;;;;;4.85;2.17;;;;;;;6.23;100.00;97888.97;5094468;28;20062;-61
2023/03/26 09:13:36;;;;;;;5.63;2.00;;;;;;;6.61;100.00;97886.47;5101038;28;20450;-59
2023/03/26 09:16:33;;;;;;;4.40;1.98;;;;;;;6.57;100.00;97880.84;5096190;28;20038;-61
2023/03/26 09:19:20;;;;;;;6.20;1.60;;;;;;;6.43;100.00;97872.44;5095019;28;20040;-59
2023/03/26 09:21:46;;;;;;;9.63;2.70;;;;;;;6.35;100.00;97870.22;5096596;28;20390;-59
2023/03/26 09:24:39;;;;;;;10.27;2.67;;;;;;;6.70;100.00;97872.47;5100009;28;20024;-61
2023/03/26 09:27:25;;;;;;;9.98;2.55;;;;;;;6.41;100.00;97869.22;5097976;28;20027;-61
2023/03/26 09:30:09;;;;;;;11.27;2.53;;;;;;;6.71;100.00;97865.28;5095347;28;20024;-60
2023/03/26 09:32:49;;;;;;;6.75;2.15;;;;;;;6.65;100.00;97869.75;5100023;28;20077;-61
2023/03/26 09:35:33;;;;;;;;;;;;;;;6.56;100.00;97871.25;5098591;28;20115;-58
2023/03/26 09:38:10;;;;;;;13.00;2.50;;;;;;;6.27;100.00;97868.00;5092789;28;20406;-61
2023/03/26 09:40:37;;;;;;;4.78;2.20;;;;;;;6.40;100.00;97862.28;5095226;28;20525;-61
2023/03/26 09:43:22;;;;;;;6.30;2.30;;;;;;;6.45;100.00;97869.53;5101763;28;20102;-61
2023/03/26 09:45:51;;;;;;;16.20;2.80;;;;;;;7.21;100.00;97866.03;5098842;28;20017;-61
2023/03/26 09:48:28;;;;;;;4.28;2.08;;;;;;;7.62;100.00;97855.69;5090584;28;20039;-58
2023/03/26 09:51:22;;;;;;;6.28;2.05;;;;;;;8.18;100.00;97870.13;5095950;28;20031;-58
2023/03/26 09:53:56;;;;;;;5.40;2.20;;;;;;;7.76;100.00;97857.66;5100272;28;20598;-58
2023/03/26 09:56:48;;;;;;;6.25;2.50;;;;;;;7.65;100.00;97863.16;5105024;28;20541;-60
2023/03/26 09:59:20;;;;;;;5.45;2.70;;;;;;;7.09;100.00;97856.34;5089922;28;20032;-58
2023/03/26 10:01:57;;;;;;;5.65;2.00;;;;;;;7.05;100.00;97860.56;5095678;27;20465;-60
2023/03/26 10:04:50;;;;;;;4.10;1.95;;;;;;;6.85;100.00;97861.19;5104261;28;20468;-60
2023/03/26 10:07:33;;;;;;;7.95;2.60;;;;;;;7.18;100.00;97861.22;5094489;28;20027;-58
2023/03/26 10:10:16;;;;;;;5.50;2.20;;;;;;;6.94;100.00;97856.22;5094277;28;20055;-61
2023/03/26 10:12:43;;;;;;;6.35;2.15;;;;;;;6.93;100.00;97848.47;5099192;28;20047;-61
2023/03/26 10:15:32;;;;;;;3.85;1.80;;;;;;;7.04;100.00;97837.66;5086783;28;20047;-58
2023/03/26 10:18:18;;;;;;;2.97;1.30;;;;;;;7.01;100.00;97838.13;5067720;28;20116;-59
2023/03/26 10:21:05;;;;;;;6.30;2.05;;;;;;;7.10;100.00;97839.28;5093339;28;20036;-58
2023/03/26 10:24:02;;;;;;;5.47;1.90;;;;;;;6.94;100.00;97837.56;5085547;28;20301;-60
2023/03/26 10:26:33;;;;;;;5.93;2.17;;;;;;;6.99;100.00;97834.94;5096676;28;20521;-60
2023/03/26 10:29:11;;;;;;;8.68;2.55;;;;;;;7.11;100.00;97837.44;5089901;28;20088;-60
2023/03/26 10:31:42;;;;;;;6.18;2.00;;;;;;;7.00;100.00;97841.88;5098462;28;20032;-60
2023/03/26 10:34:26;;;;;;;6.05;2.10;;;;;;;7.01;100.00;97824.03;5099816;28;20032;-60
2023/03/26 10:37:01;;;;;;;7.35;2.25;;;;;;;6.91;100.00;97825.56;5094403;28;20549;-61
2023/03/26 10:39:35;;;;;;;6.35;2.08;;;;;;;7.10;100.00;97820.66;5091330;28;20474;-61
2023/03/26 10:42:17;;;;;;;5.05;2.05;;;;;;;7.11;100.00;97803.63;5095500;28;20032;-60
2023/03/26 10:45:01;;;;;;;5.88;1.95;;;;;;;7.44;100.00;97809.72;5092931;28;21005;-59
2023/03/26 10:48:04;;;;;;;5.38;2.20;;;;;;;7.83;100.00;97812.06;5095537;28;20023;-61
2023/03/26 10:50:32;;;;;;;8.25;2.25;;;;;;;8.11;100.00;97810.06;5095082;28;20051;-60
2023/03/26 10:53:19;;;;;;;7.53;1.73;;;;;;;7.91;100.00;97803.59;5090955;28;20359;-61
2023/03/26 10:55:46;;;;;;;8.00;2.30;;;;;;;7.71;100.00;97806.94;5067086;28;20047;-61
2023/03/26 10:58:31;;;;;;;5.63;2.50;;;;;;;7.86;100.00;97808.91;5092498;28;20028;-59
2023/03/26 11:00:56;;;;;;;10.02;7.57;;;;;;;7.67;100.00;97807.72;5094915;28;20027;-59
2023/03/26 11:03:39;;;;;;;6.82;2.47;;;;;;;7.88;100.00;97812.09;5100219;28;20351;-59
2023/03/26 11:06:10;;;;;;;4.68;2.25;;;;;;;7.75;100.00;97800.03;5091680;28;20050;-59
2023/03/26 11:08:48;;;;;;;3.50;1.77;;;;;;;7.78;100.00;97801.38;5092518;28;20110;-59
2023/03/26 11:11:58;;;;;;;5.82;2.03;;;;;;;8.12;100.00;97798.34;5095591;28;20273;-59
2023/03/26 11:14:48;;;;;;;8.23;2.30;;;;;;;8.30;100.00;97797.84;5038411;28;20380;-60
2023/03/26 11:17:45;;;;;;;3.72;1.50;;;;;;;8.04;100.00;97793.47;5038720;28;20395;-58
2023/03/26 11:20:23;;;;;;;4.60;2.03;;;;;;;8.19;100.00;97789.00;5090494;28;20054;-59
2023/03/26 11:23:13;;;;;;;5.60;1.67;;;;;;;8.23;100.00;97785.81;5091261;28;20093;-59
2023/03/26 11:26:03;;;;;;;11.70;1.97;;;;;;;8.38;100.00;97783.97;5088770;28;20062;-59
2023/03/26 11:28:58;;;;;;;9.25;2.38;;;;;;;8.38;100.00;97783.97;5092228;28;20276;-59
2023/03/26 11:31:32;;;;;;;3.90;1.52;;;;;;;8.55;100.00;97785.66;5093095;28;20444;-59
2023/03/26 11:34:04;;;;;;;5.82;3.70;;;;;;;8.80;100.00;97783.03;5092983;28;20545;-59
2023/03/26 11:36:32;;;;;;;3.10;1.50;;;;;;;8.60;100.00;97783.81;5094682;28;20031;-61
2023/03/26 11:38:59;;;;;;;8.00;1.77;;;;;;;8.81;100.00;97779.31;5096471;28;20194;-58
2023/03/26 11:41:26;;;;;;;6.38;1.60;;;;;;;8.88;100.00;97780.91;5091190;28;20477;-61
2023/03/26 11:43:58;;;;;;;3.53;1.85;;;;;;;9.11;100.00;97779.56;5094826;28;20024;-59
2023/03/26 11:46:24;;;;;;;6.13;3.35;;;;;;;9.41;100.00;97773.38;5091250;28;20035;-61
2023/03/26 11:48:52;;;;;;;4.30;1.90;;;;;;;9.45;98.72;97779.78;5083426;28;20020;-61